sensor_id;sensor_type;location;lat;lon;timestamp;P1;durP1;ratioP1;P2;durP2;ratioP2
35128;SDS011;21301;43.626;10.580;2022-10-23T00:03:50;44.38;;;19.52;;
35128;SDS011;21301;43.626;10.580;2022-10-23T00:06:18;24.95;;;14.98;;
35128;SDS011;21301;43.626;10.580;2022-10-23T00:08:47;27.48;;;13.70;;
35128;SDS011;21301;43.626;10.580;2022-10-23T00:11:15;36.25;;;15.50;;
35128;SDS011;21301;43.626;10.580;2022-10-23T00:13:43;33.58;;;14.77;;
35128;SDS011;21301;43.626;10.580;2022-10-23T00:16:10;23.58;;;14.55;;
35128;SDS011;21301;43.626;10.580;2022-10-23T00:18:36;31.13;;;14.73;;
35128;SDS011;21301;43.626;10.580;2022-10-23T00:21:04;28.30;;;14.60;;
35128;SDS011;21301;43.626;10.580;2022-10-23T00:23:30;30.90;;;17.52;;
35128;SDS011;21301;43.626;10.580;2022-10-23T00:25:56;33.63;;;15.98;;
35128;SDS011;21301;43.626;10.580;2022-10-23T00:28:23;31.02;;;17.00;;
35128;SDS011;21301;43.626;10.580;2022-10-23T00:30:49;25.30;;;14.60;;
35128;SDS011;21301;43.626;10.580;2022-10-23T00:33:15;30.00;;;14.15;;
35128;SDS011;21301;43.626;10.580;2022-10-23T00:35:41;21.30;;;13.60;;
35128;SDS011;21301;43.626;10.580;2022-10-23T00:38:07;27.27;;;12.68;;
35128;SDS011;21301;43.626;10.580;2022-10-23T00:40:34;26.00;;;14.05;;
35128;SDS011;21301;43.626;10.580;2022-10-23T00:43:01;25.15;;;14.55;;
35128;SDS011;21301;43.626;10.580;2022-10-23T00:45:29;35.47;;;15.45;;
35128;SDS011;21301;43.626;10.580;2022-10-23T00:47:58;25.45;;;13.43;;
35128;SDS011;21301;43.626;10.580;2022-10-23T00:50:25;26.13;;;12.75;;
35128;SDS011;21301;43.626;10.580;2022-10-23T00:52:53;30.55;;;14.55;;
35128;SDS011;21301;43.626;10.580;2022-10-23T00:55:21;27.95;;;15.13;;
35128;SDS011;21301;43.626;10.580;2022-10-23T00:57:48;20.45;;;12.18;;
35128;SDS011;21301;43.626;10.580;2022-10-23T01:00:17;32.00;;;15.27;;
35128;SDS011;21301;43.626;10.580;2022-10-23T01:02:46;29.90;;;14.35;;
35128;SDS011;21301;43.626;10.580;2022-10-23T01:05:12;30.70;;;14.20;;
35128;SDS011;21301;43.626;10.580;2022-10-23T01:15:42;29.20;;;15.25;;
35128;SDS011;21301;43.626;10.580;2022-10-23T01:18:20;24.98;;;13.80;;
35128;SDS011;21301;43.626;10.580;2022-10-23T01:30:11;25.10;;;14.73;;
35128;SDS011;21301;43.626;10.580;2022-10-23T01:32:43;30.88;;;14.68;;
35128;SDS011;21301;43.626;10.580;2022-10-23T01:35:19;30.20;;;13.93;;
35128;SDS011;21301;43.626;10.580;2022-10-23T01:40:30;33.72;;;15.18;;
35128;SDS011;21301;43.626;10.580;2022-10-23T01:43:11;26.88;;;15.18;;
35128;SDS011;21301;43.626;10.580;2022-10-23T01:45:41;39.28;;;16.27;;
35128;SDS011;21301;43.626;10.580;2022-10-23T01:48:18;29.23;;;15.02;;
35128;SDS011;21301;43.626;10.580;2022-10-23T01:50:47;28.92;;;15.95;;
35128;SDS011;21301;43.626;10.580;2022-10-23T01:53:15;26.88;;;14.68;;
35128;SDS011;21301;43.626;10.580;2022-10-23T01:55:43;26.92;;;14.32;;
35128;SDS011;21301;43.626;10.580;2022-10-23T01:58:16;22.30;;;13.30;;
35128;SDS011;21301;43.626;10.580;2022-10-23T02:00:45;28.90;;;14.25;;
35128;SDS011;21301;43.626;10.580;2022-10-23T02:03:14;26.58;;;14.23;;
35128;SDS011;21301;43.626;10.580;2022-10-23T02:05:41;23.20;;;14.35;;
35128;SDS011;21301;43.626;10.580;2022-10-23T02:08:08;41.75;;;15.50;;
35128;SDS011;21301;43.626;10.580;2022-10-23T02:10:43;23.13;;;13.57;;
35128;SDS011;21301;43.626;10.580;2022-10-23T02:15:50;32.08;;;14.43;;
35128;SDS011;21301;43.626;10.580;2022-10-23T02:24:28;25.80;;;14.30;;
35128;SDS011;21301;43.626;10.580;2022-10-23T02:27:01;21.50;;;13.13;;
35128;SDS011;21301;43.626;10.580;2022-10-23T02:29:35;20.67;;;12.63;;
35128;SDS011;21301;43.626;10.580;2022-10-23T02:32:06;28.10;;;14.32;;
35128;SDS011;21301;43.626;10.580;2022-10-23T02:34:34;22.48;;;13.65;;
35128;SDS011;21301;43.626;10.580;2022-10-23T02:37:00;24.30;;;13.20;;
35128;SDS011;21301;43.626;10.580;2022-10-23T02:39:27;25.92;;;14.43;;
35128;SDS011;21301;43.626;10.580;2022-10-23T02:41:56;24.23;;;14.70;;
35128;SDS011;21301;43.626;10.580;2022-10-23T02:49:48;23.48;;;13.52;;
35128;SDS011;21301;43.626;10.580;2022-10-23T02:52:28;23.45;;;14.13;;
35128;SDS011;21301;43.626;10.580;2022-10-23T02:55:07;19.80;;;11.32;;
35128;SDS011;21301;43.626;10.580;2022-10-23T02:58:06;24.25;;;12.55;;
35128;SDS011;21301;43.626;10.580;2022-10-23T03:00:45;22.50;;;12.30;;
35128;SDS011;21301;43.626;10.580;2022-10-23T03:04:13;20.88;;;12.13;;
35128;SDS011;21301;43.626;10.580;2022-10-23T03:06:41;23.13;;;13.15;;
35128;SDS011;21301;43.626;10.580;2022-10-23T03:09:13;24.53;;;11.93;;
35128;SDS011;21301;43.626;10.580;2022-10-23T03:11:39;20.65;;;12.10;;
35128;SDS011;21301;43.626;10.580;2022-10-23T03:14:05;29.10;;;13.10;;
35128;SDS011;21301;43.626;10.580;2022-10-23T03:16:31;24.58;;;13.48;;
35128;SDS011;21301;43.626;10.580;2022-10-23T03:18:57;21.60;;;13.43;;
35128;SDS011;21301;43.626;10.580;2022-10-23T03:21:22;20.48;;;12.57;;
35128;SDS011;21301;43.626;10.580;2022-10-23T03:23:51;22.50;;;13.85;;
35128;SDS011;21301;43.626;10.580;2022-10-23T03:26:22;21.92;;;12.38;;
35128;SDS011;21301;43.626;10.580;2022-10-23T03:28:48;21.27;;;12.52;;
35128;SDS011;21301;43.626;10.580;2022-10-23T03:31:16;25.48;;;14.60;;
35128;SDS011;21301;43.626;10.580;2022-10-23T03:33:43;30.15;;;14.02;;
35128;SDS011;21301;43.626;10.580;2022-10-23T03:36:10;33.67;;;13.15;;
35128;SDS011;21301;43.626;10.580;2022-10-23T03:38:36;21.23;;;13.70;;
35128;SDS011;21301;43.626;10.580;2022-10-23T03:41:03;20.92;;;11.73;;
35128;SDS011;21301;43.626;10.580;2022-10-23T03:43:29;24.80;;;12.07;;
35128;SDS011;21301;43.626;10.580;2022-10-23T03:45:55;25.13;;;13.05;;
35128;SDS011;21301;43.626;10.580;2022-10-23T03:48:23;24.60;;;14.18;;
35128;SDS011;21301;43.626;10.580;2022-10-23T03:50:51;25.90;;;12.88;;
35128;SDS011;21301;43.626;10.580;2022-10-23T03:53:17;19.48;;;11.50;;
35128;SDS011;21301;43.626;10.580;2022-10-23T03:55:43;26.15;;;11.35;;
35128;SDS011;21301;43.626;10.580;2022-10-23T03:58:09;23.83;;;13.10;;
35128;SDS011;21301;43.626;10.580;2022-10-23T04:00:35;20.33;;;12.52;;
35128;SDS011;21301;43.626;10.580;2022-10-23T04:03:01;28.02;;;13.25;;
35128;SDS011;21301;43.626;10.580;2022-10-23T04:05:27;20.92;;;11.82;;
35128;SDS011;21301;43.626;10.580;2022-10-23T04:07:55;23.10;;;13.50;;
35128;SDS011;21301;43.626;10.580;2022-10-23T04:10:21;24.63;;;12.57;;
35128;SDS011;21301;43.626;10.580;2022-10-23T04:12:48;21.75;;;12.30;;
35128;SDS011;21301;43.626;10.580;2022-10-23T04:15:14;23.63;;;12.90;;
35128;SDS011;21301;43.626;10.580;2022-10-23T04:17:43;19.75;;;11.13;;
35128;SDS011;21301;43.626;10.580;2022-10-23T04:20:09;18.13;;;11.95;;
35128;SDS011;21301;43.626;10.580;2022-10-23T04:22:35;21.20;;;12.63;;
35128;SDS011;21301;43.626;10.580;2022-10-23T04:25:01;25.65;;;13.40;;
35128;SDS011;21301;43.626;10.580;2022-10-23T04:27:30;22.85;;;13.00;;
35128;SDS011;21301;43.626;10.580;2022-10-23T04:29:56;25.13;;;12.15;;
35128;SDS011;21301;43.626;10.580;2022-10-23T04:32:21;21.98;;;12.70;;
35128;SDS011;21301;43.626;10.580;2022-10-23T04:34:47;22.98;;;12.43;;
35128;SDS011;21301;43.626;10.580;2022-10-23T04:37:13;29.13;;;14.88;;
35128;SDS011;21301;43.626;10.580;2022-10-23T04:39:39;23.45;;;14.32;;
35128;SDS011;21301;43.626;10.580;2022-10-23T04:42:11;24.23;;;13.13;;
35128;SDS011;21301;43.626;10.580;2022-10-23T04:44:37;21.48;;;14.63;;
35128;SDS011;21301;43.626;10.580;2022-10-23T04:47:03;23.58;;;14.77;;
35128;SDS011;21301;43.626;10.580;2022-10-23T04:49:30;23.75;;;12.57;;
35128;SDS011;21301;43.626;10.580;2022-10-23T04:52:14;24.83;;;12.13;;
35128;SDS011;21301;43.626;10.580;2022-10-23T04:55:03;21.60;;;13.68;;
35128;SDS011;21301;43.626;10.580;2022-10-23T04:57:40;23.92;;;13.52;;
35128;SDS011;21301;43.626;10.580;2022-10-23T05:00:11;22.25;;;13.93;;
35128;SDS011;21301;43.626;10.580;2022-10-23T05:02:49;21.00;;;13.52;;
35128;SDS011;21301;43.626;10.580;2022-10-23T05:05:16;22.85;;;12.80;;
35128;SDS011;21301;43.626;10.580;2022-10-23T05:07:58;22.98;;;13.32;;
35128;SDS011;21301;43.626;10.580;2022-10-23T05:10:42;25.38;;;12.70;;
35128;SDS011;21301;43.626;10.580;2022-10-23T05:13:13;29.55;;;14.00;;
35128;SDS011;21301;43.626;10.580;2022-10-23T05:15:40;21.65;;;12.68;;
35128;SDS011;21301;43.626;10.580;2022-10-23T05:18:10;21.85;;;12.73;;
35128;SDS011;21301;43.626;10.580;2022-10-23T05:20:57;20.48;;;13.00;;
35128;SDS011;21301;43.626;10.580;2022-10-23T05:23:26;21.88;;;12.80;;
35128;SDS011;21301;43.626;10.580;2022-10-23T05:25:57;19.63;;;11.60;;
35128;SDS011;21301;43.626;10.580;2022-10-23T05:28:23;22.05;;;12.95;;
35128;SDS011;21301;43.626;10.580;2022-10-23T05:30:49;22.40;;;13.10;;
35128;SDS011;21301;43.626;10.580;2022-10-23T05:33:16;21.13;;;11.55;;
35128;SDS011;21301;43.626;10.580;2022-10-23T05:35:43;16.13;;;11.23;;
35128;SDS011;21301;43.626;10.580;2022-10-23T05:38:11;18.10;;;11.35;;
35128;SDS011;21301;43.626;10.580;2022-10-23T05:40:38;20.85;;;12.65;;
35128;SDS011;21301;43.626;10.580;2022-10-23T05:43:07;20.98;;;11.75;;
35128;SDS011;21301;43.626;10.580;2022-10-23T05:45:55;19.88;;;11.65;;
35128;SDS011;21301;43.626;10.580;2022-10-23T05:48:31;24.02;;;14.70;;
35128;SDS011;21301;43.626;10.580;2022-10-23T05:51:19;28.90;;;16.58;;
35128;SDS011;21301;43.626;10.580;2022-10-23T05:53:58;26.63;;;15.65;;
35128;SDS011;21301;43.626;10.580;2022-10-23T05:56:54;27.75;;;16.88;;
35128;SDS011;21301;43.626;10.580;2022-10-23T05:59:32;23.15;;;16.02;;
35128;SDS011;21301;43.626;10.580;2022-10-23T06:02:18;32.90;;;20.45;;
35128;SDS011;21301;43.626;10.580;2022-10-23T06:04:52;39.38;;;20.10;;
35128;SDS011;21301;43.626;10.580;2022-10-23T06:07:47;31.50;;;20.45;;
35128;SDS011;21301;43.626;10.580;2022-10-23T06:10:13;42.67;;;26.55;;
35128;SDS011;21301;43.626;10.580;2022-10-23T06:12:43;42.75;;;27.42;;
35128;SDS011;21301;43.626;10.580;2022-10-23T06:15:13;35.47;;;19.95;;
35128;SDS011;21301;43.626;10.580;2022-10-23T06:18:03;31.77;;;16.98;;
35128;SDS011;21301;43.626;10.580;2022-10-23T06:20:36;32.25;;;17.17;;
35128;SDS011;21301;43.626;10.580;2022-10-23T06:23:08;27.05;;;13.80;;
35128;SDS011;21301;43.626;10.580;2022-10-23T06:25:53;22.73;;;12.30;;
35128;SDS011;21301;43.626;10.580;2022-10-23T06:28:27;19.08;;;12.20;;
35128;SDS011;21301;43.626;10.580;2022-10-23T06:30:53;23.10;;;13.25;;
35128;SDS011;21301;43.626;10.580;2022-10-23T06:33:19;19.33;;;11.55;;
35128;SDS011;21301;43.626;10.580;2022-10-23T06:35:46;23.33;;;13.35;;
35128;SDS011;21301;43.626;10.580;2022-10-23T06:38:13;19.55;;;11.18;;
35128;SDS011;21301;43.626;10.580;2022-10-23T06:40:56;18.50;;;11.90;;
35128;SDS011;21301;43.626;10.580;2022-10-23T06:43:31;22.45;;;12.52;;
35128;SDS011;21301;43.626;10.580;2022-10-23T06:46:14;21.33;;;12.05;;
35128;SDS011;21301;43.626;10.580;2022-10-23T06:49:02;20.10;;;12.68;;
35128;SDS011;21301;43.626;10.580;2022-10-23T06:51:32;15.60;;;10.80;;
35128;SDS011;21301;43.626;10.580;2022-10-23T06:54:03;17.15;;;11.20;;
35128;SDS011;21301;43.626;10.580;2022-10-23T06:56:59;17.52;;;11.35;;
35128;SDS011;21301;43.626;10.580;2022-10-23T06:59:39;19.88;;;11.98;;
35128;SDS011;21301;43.626;10.580;2022-10-23T07:02:07;19.20;;;12.00;;
35128;SDS011;21301;43.626;10.580;2022-10-23T07:04:34;20.23;;;10.98;;
35128;SDS011;21301;43.626;10.580;2022-10-23T07:07:03;18.30;;;11.23;;
35128;SDS011;21301;43.626;10.580;2022-10-23T07:09:39;18.63;;;10.93;;
35128;SDS011;21301;43.626;10.580;2022-10-23T07:12:26;29.25;;;13.25;;
35128;SDS011;21301;43.626;10.580;2022-10-23T07:15:13;30.95;;;13.07;;
35128;SDS011;21301;43.626;10.580;2022-10-23T07:17:40;19.73;;;12.10;;
35128;SDS011;21301;43.626;10.580;2022-10-23T07:20:05;17.23;;;11.32;;
35128;SDS011;21301;43.626;10.580;2022-10-23T07:22:32;16.63;;;11.68;;
35128;SDS011;21301;43.626;10.580;2022-10-23T07:25:09;16.55;;;9.57;;
35128;SDS011;21301;43.626;10.580;2022-10-23T07:27:37;19.23;;;10.00;;
35128;SDS011;21301;43.626;10.580;2022-10-23T07:30:05;16.58;;;10.15;;
35128;SDS011;21301;43.626;10.580;2022-10-23T07:32:38;16.90;;;10.27;;
35128;SDS011;21301;43.626;10.580;2022-10-23T07:35:24;17.80;;;10.77;;
35128;SDS011;21301;43.626;10.580;2022-10-23T07:38:01;19.73;;;10.77;;
35128;SDS011;21301;43.626;10.580;2022-10-23T07:40:30;18.00;;;10.48;;
35128;SDS011;21301;43.626;10.580;2022-10-23T07:42:56;20.25;;;10.18;;
35128;SDS011;21301;43.626;10.580;2022-10-23T07:45:22;13.38;;;9.52;;
35128;SDS011;21301;43.626;10.580;2022-10-23T07:47:49;21.75;;;12.15;;
35128;SDS011;21301;43.626;10.580;2022-10-23T07:50:16;16.98;;;10.90;;
35128;SDS011;21301;43.626;10.580;2022-10-23T07:52:43;13.82;;;9.32;;
35128;SDS011;21301;43.626;10.580;2022-10-23T07:55:11;18.10;;;9.93;;
35128;SDS011;21301;43.626;10.580;2022-10-23T07:57:44;19.48;;;10.43;;
35128;SDS011;21301;43.626;10.580;2022-10-23T08:00:33;21.20;;;11.95;;
35128;SDS011;21301;43.626;10.580;2022-10-23T08:03:10;19.48;;;11.70;;
35128;SDS011;21301;43.626;10.580;2022-10-23T08:05:37;23.55;;;11.25;;
35128;SDS011;21301;43.626;10.580;2022-10-23T08:08:03;19.05;;;10.90;;
35128;SDS011;21301;43.626;10.580;2022-10-23T08:10:30;16.13;;;10.70;;
35128;SDS011;21301;43.626;10.580;2022-10-23T08:12:56;14.00;;;9.15;;
35128;SDS011;21301;43.626;10.580;2022-10-23T08:15:40;19.25;;;10.30;;
35128;SDS011;21301;43.626;10.580;2022-10-23T08:18:22;13.20;;;9.07;;
35128;SDS011;21301;43.626;10.580;2022-10-23T08:20:48;18.00;;;9.52;;
35128;SDS011;21301;43.626;10.580;2022-10-23T08:23:17;17.17;;;10.45;;
35128;SDS011;21301;43.626;10.580;2022-10-23T08:25:44;19.65;;;10.45;;
35128;SDS011;21301;43.626;10.580;2022-10-23T08:28:12;18.15;;;11.15;;
35128;SDS011;21301;43.626;10.580;2022-10-23T08:30:49;18.25;;;10.85;;
35128;SDS011;21301;43.626;10.580;2022-10-23T08:33:16;16.08;;;9.75;;
35128;SDS011;21301;43.626;10.580;2022-10-23T08:35:42;21.38;;;9.90;;
35128;SDS011;21301;43.626;10.580;2022-10-23T08:38:08;16.95;;;10.82;;
35128;SDS011;21301;43.626;10.580;2022-10-23T08:40:44;16.95;;;10.73;;
35128;SDS011;21301;43.626;10.580;2022-10-23T08:43:23;19.40;;;9.80;;
35128;SDS011;21301;43.626;10.580;2022-10-23T08:46:45;18.38;;;10.60;;
35128;SDS011;21301;43.626;10.580;2022-10-23T08:52:00;19.05;;;10.35;;
35128;SDS011;21301;43.626;10.580;2022-10-23T08:57:15;17.02;;;9.65;;
35128;SDS011;21301;43.626;10.580;2022-10-23T08:59:53;22.83;;;11.98;;
35128;SDS011;21301;43.626;10.580;2022-10-23T09:02:25;24.40;;;11.63;;
35128;SDS011;21301;43.626;10.580;2022-10-23T09:04:55;17.77;;;11.10;;
35128;SDS011;21301;43.626;10.580;2022-10-23T09:07:29;17.13;;;11.30;;
35128;SDS011;21301;43.626;10.580;2022-10-23T09:10:20;22.52;;;11.63;;
35128;SDS011;21301;43.626;10.580;2022-10-23T09:12:48;18.05;;;10.77;;
35128;SDS011;21301;43.626;10.580;2022-10-23T09:17:46;16.17;;;10.30;;
35128;SDS011;21301;43.626;10.580;2022-10-23T09:20:20;20.67;;;12.27;;
35128;SDS011;21301;43.626;10.580;2022-10-23T09:22:51;17.90;;;11.45;;
35128;SDS011;21301;43.626;10.580;2022-10-23T09:25:27;18.85;;;10.95;;
35128;SDS011;21301;43.626;10.580;2022-10-23T09:27:56;18.70;;;10.88;;
35128;SDS011;21301;43.626;10.580;2022-10-23T09:30:27;20.58;;;11.02;;
35128;SDS011;21301;43.626;10.580;2022-10-23T09:32:59;29.50;;;11.60;;
35128;SDS011;21301;43.626;10.580;2022-10-23T09:35:36;21.70;;;12.40;;
35128;SDS011;21301;43.626;10.580;2022-10-23T09:38:02;19.85;;;12.35;;
35128;SDS011;21301;43.626;10.580;2022-10-23T09:43:14;18.27;;;12.05;;
35128;SDS011;21301;43.626;10.580;2022-10-23T09:45:41;20.33;;;11.45;;
35128;SDS011;21301;43.626;10.580;2022-10-23T09:48:13;18.95;;;10.90;;
35128;SDS011;21301;43.626;10.580;2022-10-23T09:50:46;19.13;;;11.52;;
35128;SDS011;21301;43.626;10.580;2022-10-23T09:53:15;21.10;;;10.77;;
35128;SDS011;21301;43.626;10.580;2022-10-23T09:55:50;20.42;;;11.57;;
35128;SDS011;21301;43.626;10.580;2022-10-23T09:58:22;24.48;;;12.95;;
35128;SDS011;21301;43.626;10.580;2022-10-23T10:00:53;24.17;;;12.88;;
35128;SDS011;21301;43.626;10.580;2022-10-23T10:03:33;16.30;;;11.00;;
35128;SDS011;21301;43.626;10.580;2022-10-23T10:06:17;19.58;;;11.10;;
35128;SDS011;21301;43.626;10.580;2022-10-23T10:08:49;21.77;;;12.20;;
35128;SDS011;21301;43.626;10.580;2022-10-23T10:16:53;18.30;;;11.88;;
35128;SDS011;21301;43.626;10.580;2022-10-23T10:30:25;15.95;;;11.35;;
35128;SDS011;21301;43.626;10.580;2022-10-23T10:33:03;18.33;;;9.90;;
35128;SDS011;21301;43.626;10.580;2022-10-23T10:35:42;21.33;;;11.57;;
35128;SDS011;21301;43.626;10.580;2022-10-23T10:38:16;17.67;;;10.93;;
35128;SDS011;21301;43.626;10.580;2022-10-23T10:54:49;17.90;;;9.70;;
35128;SDS011;21301;43.626;10.580;2022-10-23T10:57:35;16.58;;;9.15;;
35128;SDS011;21301;43.626;10.580;2022-10-23T11:00:05;15.93;;;9.80;;
35128;SDS011;21301;43.626;10.580;2022-10-23T11:02:38;16.45;;;9.07;;
35128;SDS011;21301;43.626;10.580;2022-10-23T11:10:31;15.43;;;8.93;;
35128;SDS011;21301;43.626;10.580;2022-10-23T11:12:59;16.80;;;10.23;;
35128;SDS011;21301;43.626;10.580;2022-10-23T11:15:34;15.75;;;9.20;;
35128;SDS011;21301;43.626;10.580;2022-10-23T11:18:14;19.77;;;12.50;;
35128;SDS011;21301;43.626;10.580;2022-10-23T11:23:36;14.80;;;9.95;;
35128;SDS011;21301;43.626;10.580;2022-10-23T11:37:14;16.10;;;8.85;;
35128;SDS011;21301;43.626;10.580;2022-10-23T11:39:52;21.65;;;11.32;;
35128;SDS011;21301;43.626;10.580;2022-10-23T11:53:27;19.10;;;9.25;;
35128;SDS011;21301;43.626;10.580;2022-10-23T11:58:43;21.17;;;10.60;;
35128;SDS011;21301;43.626;10.580;2022-10-23T12:06:50;14.07;;;9.00;;
35128;SDS011;21301;43.626;10.580;2022-10-23T12:12:13;19.13;;;8.57;;
35128;SDS011;21301;43.626;10.580;2022-10-23T12:14:44;14.10;;;9.15;;
35128;SDS011;21301;43.626;10.580;2022-10-23T12:19:50;17.10;;;8.75;;
35128;SDS011;21301;43.626;10.580;2022-10-23T12:33:52;16.30;;;9.52;;
35128;SDS011;21301;43.626;10.580;2022-10-23T12:36:41;18.83;;;10.45;;
35128;SDS011;21301;43.626;10.580;2022-10-23T12:39:25;16.15;;;9.05;;
35128;SDS011;21301;43.626;10.580;2022-10-23T12:41:55;19.50;;;9.88;;
35128;SDS011;21301;43.626;10.580;2022-10-23T12:44:23;15.38;;;9.25;;
35128;SDS011;21301;43.626;10.580;2022-10-23T12:46:52;14.13;;;8.50;;
35128;SDS011;21301;43.626;10.580;2022-10-23T12:49:24;19.38;;;10.27;;
35128;SDS011;21301;43.626;10.580;2022-10-23T12:51:56;18.77;;;10.77;;
35128;SDS011;21301;43.626;10.580;2022-10-23T12:54:24;14.73;;;8.65;;
35128;SDS011;21301;43.626;10.580;2022-10-23T12:56:51;15.05;;;8.60;;
35128;SDS011;21301;43.626;10.580;2022-10-23T12:59:20;17.50;;;8.73;;
35128;SDS011;21301;43.626;10.580;2022-10-23T13:01:53;14.35;;;8.07;;
35128;SDS011;21301;43.626;10.580;2022-10-23T13:04:21;14.80;;;8.98;;
35128;SDS011;21301;43.626;10.580;2022-10-23T13:06:59;15.15;;;9.07;;
35128;SDS011;21301;43.626;10.580;2022-10-23T13:09:29;17.67;;;8.73;;
35128;SDS011;21301;43.626;10.580;2022-10-23T13:12:25;15.45;;;9.00;;
35128;SDS011;21301;43.626;10.580;2022-10-23T13:23:08;15.75;;;8.73;;
35128;SDS011;21301;43.626;10.580;2022-10-23T13:28:28;14.95;;;8.15;;
35128;SDS011;21301;43.626;10.580;2022-10-23T13:33:38;14.93;;;9.02;;
35128;SDS011;21301;43.626;10.580;2022-10-23T13:38:38;15.90;;;8.48;;
35128;SDS011;21301;43.626;10.580;2022-10-23T13:41:13;19.40;;;8.88;;
35128;SDS011;21301;43.626;10.580;2022-10-23T13:43:41;16.27;;;8.68;;
35128;SDS011;21301;43.626;10.580;2022-10-23T13:46:14;13.13;;;7.63;;
35128;SDS011;21301;43.626;10.580;2022-10-23T13:48:41;16.27;;;7.68;;
35128;SDS011;21301;43.626;10.580;2022-10-23T13:51:10;19.33;;;7.70;;
35128;SDS011;21301;43.626;10.580;2022-10-23T13:53:45;11.70;;;7.38;;
35128;SDS011;21301;43.626;10.580;2022-10-23T13:56:11;14.55;;;8.23;;
35128;SDS011;21301;43.626;10.580;2022-10-23T13:58:39;12.52;;;7.75;;
35128;SDS011;21301;43.626;10.580;2022-10-23T14:01:05;14.43;;;7.90;;
35128;SDS011;21301;43.626;10.580;2022-10-23T14:03:36;15.48;;;8.10;;
35128;SDS011;21301;43.626;10.580;2022-10-23T14:06:02;27.17;;;9.27;;
35128;SDS011;21301;43.626;10.580;2022-10-23T14:08:27;13.30;;;7.35;;
35128;SDS011;21301;43.626;10.580;2022-10-23T14:10:53;16.90;;;7.57;;
35128;SDS011;21301;43.626;10.580;2022-10-23T14:13:19;20.52;;;9.32;;
35128;SDS011;21301;43.626;10.580;2022-10-23T14:15:51;16.40;;;9.07;;
35128;SDS011;21301;43.626;10.580;2022-10-23T14:20:44;17.38;;;9.10;;
35128;SDS011;21301;43.626;10.580;2022-10-23T14:23:10;12.23;;;7.88;;
35128;SDS011;21301;43.626;10.580;2022-10-23T14:25:36;15.02;;;9.15;;
35128;SDS011;21301;43.626;10.580;2022-10-23T14:28:01;16.80;;;9.20;;
35128;SDS011;21301;43.626;10.580;2022-10-23T14:30:27;13.73;;;8.43;;
35128;SDS011;21301;43.626;10.580;2022-10-23T14:32:53;15.73;;;8.00;;
35128;SDS011;21301;43.626;10.580;2022-10-23T14:35:19;15.02;;;8.68;;
35128;SDS011;21301;43.626;10.580;2022-10-23T14:37:45;17.25;;;7.78;;
35128;SDS011;21301;43.626;10.580;2022-10-23T14:40:10;21.98;;;8.10;;
35128;SDS011;21301;43.626;10.580;2022-10-23T14:42:36;15.82;;;7.55;;
35128;SDS011;21301;43.626;10.580;2022-10-23T14:45:02;17.13;;;7.70;;
35128;SDS011;21301;43.626;10.580;2022-10-23T14:47:28;18.10;;;8.20;;
35128;SDS011;21301;43.626;10.580;2022-10-23T14:49:55;12.80;;;7.32;;
35128;SDS011;21301;43.626;10.580;2022-10-23T14:52:21;12.45;;;8.02;;
35128;SDS011;21301;43.626;10.580;2022-10-23T14:54:47;17.05;;;8.82;;
35128;SDS011;21301;43.626;10.580;2022-10-23T14:57:14;19.02;;;10.57;;
35128;SDS011;21301;43.626;10.580;2022-10-23T14:59:42;16.65;;;8.45;;
35128;SDS011;21301;43.626;10.580;2022-10-23T15:02:09;20.45;;;8.77;;
35128;SDS011;21301;43.626;10.580;2022-10-23T15:04:35;22.58;;;9.50;;
35128;SDS011;21301;43.626;10.580;2022-10-23T15:07:01;14.57;;;7.95;;
35128;SDS011;21301;43.626;10.580;2022-10-23T15:09:27;14.93;;;8.48;;
35128;SDS011;21301;43.626;10.580;2022-10-23T15:11:53;18.65;;;8.65;;
35128;SDS011;21301;43.626;10.580;2022-10-23T15:14:19;19.77;;;8.63;;
35128;SDS011;21301;43.626;10.580;2022-10-23T15:16:44;13.95;;;7.18;;
35128;SDS011;21301;43.626;10.580;2022-10-23T15:19:12;12.98;;;7.80;;
35128;SDS011;21301;43.626;10.580;2022-10-23T15:21:39;13.38;;;6.82;;
35128;SDS011;21301;43.626;10.580;2022-10-23T15:24:05;19.75;;;7.53;;
35128;SDS011;21301;43.626;10.580;2022-10-23T15:26:31;16.30;;;8.23;;
35128;SDS011;21301;43.626;10.580;2022-10-23T15:29:00;15.48;;;7.88;;
35128;SDS011;21301;43.626;10.580;2022-10-23T15:34:26;16.67;;;8.73;;
35128;SDS011;21301;43.626;10.580;2022-10-23T15:36:53;15.93;;;8.88;;
35128;SDS011;21301;43.626;10.580;2022-10-23T15:39:21;14.57;;;8.15;;
35128;SDS011;21301;43.626;10.580;2022-10-23T15:41:49;15.40;;;8.23;;
35128;SDS011;21301;43.626;10.580;2022-10-23T15:44:18;16.77;;;8.23;;
35128;SDS011;21301;43.626;10.580;2022-10-23T15:46:45;13.23;;;7.78;;
35128;SDS011;21301;43.626;10.580;2022-10-23T15:49:11;23.88;;;9.55;;
35128;SDS011;21301;43.626;10.580;2022-10-23T15:51:37;14.75;;;8.73;;
35128;SDS011;21301;43.626;10.580;2022-10-23T15:54:05;19.27;;;8.57;;
35128;SDS011;21301;43.626;10.580;2022-10-23T15:56:32;13.48;;;7.63;;
35128;SDS011;21301;43.626;10.580;2022-10-23T15:58:59;21.05;;;8.82;;
35128;SDS011;21301;43.626;10.580;2022-10-23T16:01:24;18.85;;;8.38;;
35128;SDS011;21301;43.626;10.580;2022-10-23T16:03:51;13.85;;;8.23;;
35128;SDS011;21301;43.626;10.580;2022-10-23T16:06:17;13.80;;;9.23;;
35128;SDS011;21301;43.626;10.580;2022-10-23T16:08:44;14.07;;;7.85;;
35128;SDS011;21301;43.626;10.580;2022-10-23T16:11:17;15.13;;;9.00;;
35128;SDS011;21301;43.626;10.580;2022-10-23T16:13:51;14.30;;;8.70;;
35128;SDS011;21301;43.626;10.580;2022-10-23T16:16:18;14.73;;;7.90;;
35128;SDS011;21301;43.626;10.580;2022-10-23T16:18:44;15.82;;;9.30;;
35128;SDS011;21301;43.626;10.580;2022-10-23T16:21:23;14.00;;;8.30;;
35128;SDS011;21301;43.626;10.580;2022-10-23T16:23:51;17.70;;;9.10;;
35128;SDS011;21301;43.626;10.580;2022-10-23T16:26:18;19.25;;;8.85;;
35128;SDS011;21301;43.626;10.580;2022-10-23T16:28:44;21.80;;;9.38;;
35128;SDS011;21301;43.626;10.580;2022-10-23T16:31:12;17.50;;;8.45;;
35128;SDS011;21301;43.626;10.580;2022-10-23T16:33:39;30.02;;;10.95;;
35128;SDS011;21301;43.626;10.580;2022-10-23T16:36:06;19.98;;;8.95;;
35128;SDS011;21301;43.626;10.580;2022-10-23T16:38:53;12.05;;;7.90;;
35128;SDS011;21301;43.626;10.580;2022-10-23T16:41:40;16.05;;;7.85;;
35128;SDS011;21301;43.626;10.580;2022-10-23T16:44:15;16.00;;;7.63;;
35128;SDS011;21301;43.626;10.580;2022-10-23T16:46:54;12.45;;;7.65;;
35128;SDS011;21301;43.626;10.580;2022-10-23T16:49:20;17.48;;;8.60;;
35128;SDS011;21301;43.626;10.580;2022-10-23T16:51:46;14.85;;;7.82;;
35128;SDS011;21301;43.626;10.580;2022-10-23T16:54:12;14.77;;;7.63;;
35128;SDS011;21301;43.626;10.580;2022-10-23T16:56:39;20.70;;;8.38;;
35128;SDS011;21301;43.626;10.580;2022-10-23T16:59:05;11.85;;;7.93;;
35128;SDS011;21301;43.626;10.580;2022-10-23T17:01:31;22.95;;;9.30;;
35128;SDS011;21301;43.626;10.580;2022-10-23T17:03:57;18.17;;;7.50;;
35128;SDS011;21301;43.626;10.580;2022-10-23T17:06:25;14.93;;;8.98;;
35128;SDS011;21301;43.626;10.580;2022-10-23T17:08:55;20.33;;;9.23;;
35128;SDS011;21301;43.626;10.580;2022-10-23T17:11:29;19.35;;;9.40;;